| time (UTC) | temp F | wind direction | speed MPH | gust MPH | rain 1hr in | rain 24hr in | rain mn in | humidity % | barometer mb |
| 20260831200052 | 60 | 330 | 3.0 | 5.0 | 0.00 | 0.14 | 0.09 | 86 | 1018.5 |
| 20260831194546 | 60 | 59 | 0.0 | 3.0 | 0.00 | 0.15 | 0.09 | 86 | 1018.2 |
| 20260831193046 | 61 | 50 | 0.0 | 5.0 | 0.00 | 0.15 | 0.09 | 84 | 1018.0 |
| 20260831191541 | 61 | 13 | 3.0 | 5.0 | 0.00 | 0.15 | 0.09 | 84 | 1017.9 |
| 20260831190053 | 61 | 26 | 0.0 | 3.0 | 0.00 | 0.15 | 0.09 | 84 | 1017.5 |
| 20260831184540 | 61 | 18 | 2.0 | 5.0 | 0.00 | 0.15 | 0.09 | 84 | 1017.4 |
| 20260831183038 | 62 | 58 | 0.0 | 0.0 | 0.00 | 0.15 | 0.09 | 83 | 1017.1 |
| 20260831181549 | 62 | 23 | 0.0 | 2.0 | 0.00 | 0.15 | 0.09 | 83 | 1016.9 |
| 20260831180035 | 63 | 23 | 1.0 | 3.0 | 0.00 | 0.15 | 0.09 | 80 | 1016.5 |
| 20260831174532 | 63 | 46 | 0.0 | 3.0 | 0.00 | 0.15 | 0.09 | 78 | 1016.2 |
| 20260831173030 | 64 | 46 | 0.0 | 0.0 | 0.00 | 0.15 | 0.09 | 77 | 1015.8 |
| 20260831171532 | 64 | 46 | 0.0 | 2.0 | 0.00 | 0.15 | 0.09 | 77 | 1016.0 |
| 20260831170038 | 64 | 96 | 1.0 | 3.0 | 0.00 | 0.15 | 0.09 | 77 | 1015.7 |
| 20260831164534 | 64 | 342 | 0.0 | 0.0 | 0.00 | 0.15 | 0.09 | 81 | 1015.7 |
| 20260831163033 | 64 | 342 | 1.0 | 2.0 | 0.00 | 0.15 | 0.09 | 80 | 1015.5 |
| 20260831161532 | 64 | 160 | 3.0 | 5.0 | 0.00 | 0.15 | 0.09 | 78 | 1015.7 |
| 20260831160042 | 65 | 84 | 0.0 | 6.0 | 0.00 | 0.15 | 0.09 | 70 | 1015.6 |
| 20260831154532 | 65 | 96 | 5.0 | 9.0 | 0.00 | 0.15 | 0.09 | 69 | 1015.3 |
| 20260831153101 | 65 | 84 | 3.0 | 6.0 | 0.00 | 0.15 | 0.09 | 70 | 1015.3 |
| 20260831151531 | 66 | 55 | 1.0 | 8.0 | 0.00 | 0.15 | 0.09 | 72 | 1015.3 |
| 20260831150034 | 66 | 5 | 2.0 | 6.0 | 0.00 | 0.15 | 0.09 | 71 | 1015.2 |
| 20260831144529 | 66 | 67 | 4.0 | 7.0 | 0.00 | 0.15 | 0.09 | 70 | 1015.2 |
| 20260831143029 | 66 | 55 | 4.0 | 10.0 | 0.00 | 0.15 | 0.09 | 72 | 1015.2 |
| 20260831141528 | 67 | 73 | 6.0 | 11.0 | 0.00 | 0.15 | 0.09 | 72 | 1015.2 |
| 20260831140028 | 67 | 27 | 7.0 | 13.0 | 0.00 | 0.15 | 0.09 | 71 | 1015.2 |
| 20260831134528 | 69 | 61 | 8.0 | 13.0 | 0.00 | 0.15 | 0.09 | 70 | 1015.1 |
| 20260831133030 | 70 | 30 | 9.0 | 14.0 | 0.00 | 0.15 | 0.09 | 68 | 1015.0 |
| 20260831131529 | 69 | 32 | 7.0 | 14.0 | 0.00 | 0.15 | 0.09 | 71 | 1014.9 |
| 20260831130026 | 71 | 65 | 7.0 | 14.0 | 0.00 | 0.15 | 0.09 | 67 | 1014.8 |
| 20260831124526 | 71 | 30 | 9.0 | 17.0 | 0.00 | 0.15 | 0.09 | 69 | 1014.6 |
| 20260831123039 | 72 | 44 | 10.0 | 17.0 | 0.00 | 0.15 | 0.09 | 67 | 1014.6 |
| 20260831121529 | 72 | 67 | 10.0 | 16.0 | 0.00 | 0.15 | 0.09 | 67 | 1014.6 |
| 20260831120147 | 72 | 49 | 9.0 | 20.0 | 0.00 | 0.15 | 0.09 | 67 | 1014.5 |
| 20260831114533 | 72 | 44 | 10.0 | 16.0 | 0.00 | 0.15 | 0.09 | 67 | 1014.5 |
| 20260831113029 | 72 | 28 | 12.0 | 19.0 | 0.00 | 0.15 | 0.09 | 69 | 1014.7 |
| 20260831111527 | 73 | 24 | 8.0 | 14.0 | 0.00 | 0.15 | 0.09 | 71 | 1014.5 |
| 20260831110002 | 73 | 9 | 6.0 | 16.0 | 0.00 | 0.15 | 0.09 | 70 | 1014.7 |
| 20260831104535 | 73 | 64 | 8.0 | 16.0 | 0.01 | 0.15 | 0.09 | 69 | 1014.6 |
| 20260831103019 | 72 | 43 | 9.0 | 16.0 | 0.01 | 0.15 | 0.09 | 69 | 1014.7 |
| 20260831101522 | 71 | 62 | 5.0 | 15.0 | 0.01 | 0.15 | 0.09 | 69 | 1014.6 |
| 20260831100023 | 71 | 51 | 5.0 | 11.0 | 0.01 | 0.15 | 0.09 | 69 | 1014.9 |
| 20260831094512 | 71 | 65 | 9.0 | 14.0 | 0.00 | 0.14 | 0.09 | 70 | 1014.9 |
| 20260831093009 | 70 | 43 | 8.0 | 14.0 | 0.00 | 0.14 | 0.09 | 74 | 1014.9 |
| 20260831091506 | 69 | 49 | 9.0 | 13.0 | 0.00 | 0.14 | 0.09 | 73 | 1014.9 |
| 20260831090003 | 68 | 12 | 6.0 | 13.0 | 0.00 | 0.14 | 0.09 | 74 | 1015.0 |
| 20260831084600 | 68 | 46 | 8.0 | 11.0 | 0.00 | 0.14 | 0.09 | 75 | 1015.0 |
| 20260831083058 | 67 | 57 | 4.0 | 9.0 | 0.00 | 0.14 | 0.09 | 77 | 1015.1 |
| 20260831081558 | 66 | 41 | 4.0 | 7.0 | 0.00 | 0.14 | 0.09 | 77 | 1015.1 |
| 20260831080047 | 65 | 55 | 2.0 | 7.0 | 0.00 | 0.14 | 0.09 | 81 | 1015.1 |
| 20260831074541 | 63 | 331 | 2.0 | 5.0 | 0.00 | 0.14 | 0.09 | 84 | 1015.0 |
| 20260831073039 | 64 | 31 | 1.0 | 4.0 | 0.00 | 0.14 | 0.09 | 86 | 1015.1 |
| 20260831071536 | 62 | 327 | 1.0 | 3.0 | 0.00 | 0.14 | 0.09 | 87 | 1015.1 |
| 20260831070048 | 61 | 122 | 0.0 | 4.0 | 0.00 | 0.14 | 0.09 | 91 | 1015.1 |
| 20260831064531 | 61 | 70 | 1.0 | 4.0 | 0.00 | 0.14 | 0.09 | 90 | 1015.0 |
| 20260831063030 | 60 | 91 | 1.0 | 6.0 | 0.00 | 0.14 | 0.09 | 92 | 1015.0 |
| 20260831061528 | 58 | 49 | 0.0 | 4.0 | 0.00 | 0.14 | 0.09 | 93 | 1015.0 |
| 20260831060026 | 59 | 34 | 3.0 | 5.0 | 0.00 | 0.14 | 0.09 | 92 | 1014.9 |
| 20260831054526 | 59 | 74 | 0.0 | 4.0 | 0.00 | 0.14 | 0.09 | 91 | 1014.8 |
| 20260831053022 | 60 | 246 | 3.0 | 6.0 | 0.00 | 0.14 | 0.09 | 89 | 1014.6 |
| 20260831051532 | 59 | 250 | 1.0 | 7.0 | 0.00 | 0.14 | 0.09 | 90 | 1014.6 |
| 20260831050019 | 60 | 281 | 3.0 | 6.0 | 0.00 | 0.14 | 0.09 | 89 | 1014.7 |
| 20260831044519 | 59 | 214 | 3.0 | 7.0 | 0.00 | 0.14 | 0.09 | 91 | 1014.4 |
| 20260831043016 | 59 | 236 | 4.0 | 9.0 | 0.00 | 0.14 | 0.09 | 91 | 1014.7 |
| 20260831041525 | 59 | 176 | 4.0 | 9.0 | 0.00 | 0.14 | 0.09 | 90 | 1014.7 |
| 20260831040034 | 60 | 142 | 2.0 | 7.0 | 0.00 | 0.14 | 0.09 | 90 | 1014.8 |
| 20260831034513 | 61 | 181 | 2.0 | 9.0 | 0.00 | 0.14 | 0.09 | 88 | 1014.9 |
| 20260831033013 | 60 | 151 | 6.0 | 12.0 | 0.00 | 0.14 | 0.09 | 91 | 1015.3 |
| 20260831031510 | 60 | 251 | 4.0 | 9.0 | 0.00 | 0.14 | 0.09 | 91 | 1015.7 |
| 20260831030010 | 60 | 94 | 4.0 | 8.0 | 0.01 | 0.14 | 0.09 | 92 | 1015.2 |
| 20260831024507 | 60 | 255 | 3.0 | 8.0 | 0.02 | 0.14 | 0.09 | 90 | 1013.8 |
| 20260831023008 | 60 | 213 | 0.0 | 2.0 | 0.06 | 0.14 | 0.09 | 91 | 1013.6 |
| 20260831021522 | 62 | 170 | 2.0 | 12.0 | 0.08 | 0.14 | 0.09 | 88 | 1013.7 |
| 20260831020003 | 61 | 289 | 8.0 | 17.0 | 0.07 | 0.13 | 0.08 | 90 | 1013.3 |
| 20260831014502 | 61 | 188 | 5.0 | 12.0 | 0.06 | 0.13 | 0.07 | 91 | 1013.6 |
| 20260831013103 | 60 | 197 | 2.0 | 8.0 | 0.02 | 0.09 | 0.03 | 92 | 1013.9 |
| 20260831011600 | 60 | 331 | 1.0 | 7.0 | 0.00 | 0.06 | 0.01 | 93 | 1013.6 |
| 20260831010130 | 60 | 223 | 3.0 | 5.0 | 0.00 | 0.06 | 0.01 | 93 | 1013.7 |
| 20260831004557 | 60 | 282 | 3.0 | 5.0 | 0.01 | 0.06 | 0.01 | 94 | 1013.9 |
| 20260831003056 | 60 | 29 | 0.0 | 4.0 | 0.01 | 0.06 | 0.01 | 94 | 1014.0 |
| 20260831001605 | 60 | 61 | 2.0 | 6.0 | 0.01 | 0.06 | 0.01 | 93 | 1014.0 |
| 20260831000055 | 60 | 360 | 3.0 | 6.0 | 0.01 | 0.06 | 0.01 | 93 | 1014.1 |
| 20260830234553 | 60 | 5 | 0.0 | 8.0 | 0.00 | 0.06 | 0.00 | 93 | 1014.4 |
| 20260830233051 | 60 | 103 | 2.0 | 5.0 | 0.00 | 0.06 | 0.00 | 94 | 1014.4 |
| 20260830231550 | 60 | 52 | 0.0 | 4.0 | 0.00 | 0.06 | 0.00 | 94 | 1014.5 |
| 20260830230054 | 60 | 355 | 0.0 | 2.0 | 0.00 | 0.06 | 0.00 | 94 | 1014.8 |
| 20260830224555 | 61 | 53 | 0.0 | 0.0 | 0.00 | 0.06 | 0.00 | 94 | 1014.8 |
| 20260830223045 | 61 | 84 | 0.0 | 4.0 | 0.01 | 0.06 | 0.00 | 93 | 1014.9 |
| 20260830221545 | 61 | 355 | 1.0 | 3.0 | 0.02 | 0.06 | 0.00 | 93 | 1015.1 |
| 20260830220045 | 62 | 86 | 0.0 | 1.0 | 0.04 | 0.06 | 0.00 | 92 | 1015.2 |
| 20260830214546 | 62 | 101 | 4.0 | 7.0 | 0.04 | 0.06 | 0.06 | 92 | 1015.3 |
| 20260830213040 | 62 | 290 | 2.0 | 5.0 | 0.03 | 0.05 | 0.05 | 92 | 1015.3 |
| 20260830211540 | 62 | 207 | 2.0 | 6.0 | 0.02 | 0.04 | 0.04 | 91 | 1015.3 |
| 20260830210040 | 62 | 196 | 2.0 | 5.0 | 0.00 | 0.02 | 0.02 | 92 | 1015.5 |
| 20260830204539 | 62 | 142 | 0.0 | 3.0 | 0.02 | 0.02 | 0.02 | 91 | 1015.1 |
| 20260830203038 | 62 | 154 | 0.0 | 0.0 | 0.02 | 0.02 | 0.02 | 91 | 1015.1 |
| 20260830201537 | 63 | 278 | 2.0 | 4.0 | 0.02 | 0.02 | 0.02 | 89 | 1015.2 |